sensor_id;sensor_type;location;lat;lon;timestamp;temperature;humidity
7494;DHT22;3788;49.902;8.590;2023-12-28T00:01:32;7.70;97.10
7494;DHT22;3788;49.902;8.590;2023-12-28T00:03:59;7.60;97.20
7494;DHT22;3788;49.902;8.590;2023-12-28T00:06:27;7.60;97.30
7494;DHT22;3788;49.902;8.590;2023-12-28T00:08:53;7.60;97.40
7494;DHT22;3788;49.902;8.590;2023-12-28T00:11:20;7.60;97.10
7494;DHT22;3788;49.902;8.590;2023-12-28T00:13:47;7.60;97.00
7494;DHT22;3788;49.902;8.590;2023-12-28T00:16:14;7.60;96.80
7494;DHT22;3788;49.902;8.590;2023-12-28T00:18:40;7.60;96.70
7494;DHT22;3788;49.902;8.590;2023-12-28T00:21:07;7.60;96.50
7494;DHT22;3788;49.902;8.590;2023-12-28T00:23:35;7.70;96.50
7494;DHT22;3788;49.902;8.590;2023-12-28T00:26:02;7.70;96.30
7494;DHT22;3788;49.902;8.590;2023-12-28T00:28:28;7.70;96.10
7494;DHT22;3788;49.902;8.590;2023-12-28T00:30:55;7.80;96.10
7494;DHT22;3788;49.902;8.590;2023-12-28T00:33:21;7.80;95.80
7494;DHT22;3788;49.902;8.590;2023-12-28T00:35:48;7.80;95.80
7494;DHT22;3788;49.902;8.590;2023-12-28T00:38:15;7.90;95.60
7494;DHT22;3788;49.902;8.590;2023-12-28T00:40:43;7.90;95.60
7494;DHT22;3788;49.902;8.590;2023-12-28T00:43:09;7.90;95.40
7494;DHT22;3788;49.902;8.590;2023-12-28T00:45:36;8.00;95.20
7494;DHT22;3788;49.902;8.590;2023-12-28T00:48:03;8.00;95.20
7494;DHT22;3788;49.902;8.590;2023-12-28T00:50:30;8.00;95.10
7494;DHT22;3788;49.902;8.590;2023-12-28T00:52:57;8.00;95.00
7494;DHT22;3788;49.902;8.590;2023-12-28T00:55:24;8.00;94.90
7494;DHT22;3788;49.902;8.590;2023-12-28T00:57:52;8.00;95.00
7494;DHT22;3788;49.902;8.590;2023-12-28T01:00:19;8.10;94.80
7494;DHT22;3788;49.902;8.590;2023-12-28T01:02:45;8.10;94.60
7494;DHT22;3788;49.902;8.590;2023-12-28T01:05:13;8.20;94.50
7494;DHT22;3788;49.902;8.590;2023-12-28T01:07:40;8.20;94.50
7494;DHT22;3788;49.902;8.590;2023-12-28T01:10:07;8.30;94.50
7494;DHT22;3788;49.902;8.590;2023-12-28T01:12:34;8.30;94.40
7494;DHT22;3788;49.902;8.590;2023-12-28T01:15:02;8.30;94.30
7494;DHT22;3788;49.902;8.590;2023-12-28T01:17:29;8.40;94.20
7494;DHT22;3788;49.902;8.590;2023-12-28T01:19:55;8.50;94.20
7494;DHT22;3788;49.902;8.590;2023-12-28T01:22:22;8.50;93.90
7494;DHT22;3788;49.902;8.590;2023-12-28T01:24:48;8.50;93.60
7494;DHT22;3788;49.902;8.590;2023-12-28T01:27:15;8.60;93.40
7494;DHT22;3788;49.902;8.590;2023-12-28T01:29:42;8.70;93.10
7494;DHT22;3788;49.902;8.590;2023-12-28T01:32:10;8.80;92.80
7494;DHT22;3788;49.902;8.590;2023-12-28T01:34:36;8.80;92.60
7494;DHT22;3788;49.902;8.590;2023-12-28T01:37:03;8.90;92.50
7494;DHT22;3788;49.902;8.590;2023-12-28T01:39:30;9.00;92.30
7494;DHT22;3788;49.902;8.590;2023-12-28T01:41:56;9.00;92.10
7494;DHT22;3788;49.902;8.590;2023-12-28T01:44:23;9.00;92.10
7494;DHT22;3788;49.902;8.590;2023-12-28T01:46:51;9.10;91.90
7494;DHT22;3788;49.902;8.590;2023-12-28T01:49:19;9.10;91.90
7494;DHT22;3788;49.902;8.590;2023-12-28T01:51:46;9.10;91.70
7494;DHT22;3788;49.902;8.590;2023-12-28T01:54:13;9.10;91.50
7494;DHT22;3788;49.902;8.590;2023-12-28T01:56:40;9.20;91.60
7494;DHT22;3788;49.902;8.590;2023-12-28T01:59:06;9.20;91.50
7494;DHT22;3788;49.902;8.590;2023-12-28T02:01:33;9.20;91.40
7494;DHT22;3788;49.902;8.590;2023-12-28T02:04:00;9.20;91.40
7494;DHT22;3788;49.902;8.590;2023-12-28T02:06:29;9.20;91.40
7494;DHT22;3788;49.902;8.590;2023-12-28T02:08:55;9.20;91.40
7494;DHT22;3788;49.902;8.590;2023-12-28T02:11:22;9.20;91.90
7494;DHT22;3788;49.902;8.590;2023-12-28T02:13:49;9.20;91.40
7494;DHT22;3788;49.902;8.590;2023-12-28T02:16:19;9.20;91.40
7494;DHT22;3788;49.902;8.590;2023-12-28T02:18:50;9.20;91.40
7494;DHT22;3788;49.902;8.590;2023-12-28T02:21:18;9.20;91.50
7494;DHT22;3788;49.902;8.590;2023-12-28T02:23:48;9.20;91.60
7494;DHT22;3788;49.902;8.590;2023-12-28T02:26:17;9.20;91.50
7494;DHT22;3788;49.902;8.590;2023-12-28T02:28:44;9.20;91.50
7494;DHT22;3788;49.902;8.590;2023-12-28T02:31:14;9.20;91.50
7494;DHT22;3788;49.902;8.590;2023-12-28T02:33:47;9.20;91.50
7494;DHT22;3788;49.902;8.590;2023-12-28T02:36:18;9.20;91.70
7494;DHT22;3788;49.902;8.590;2023-12-28T02:38:46;9.20;91.70
7494;DHT22;3788;49.902;8.590;2023-12-28T02:41:16;9.20;91.90
7494;DHT22;3788;49.902;8.590;2023-12-28T02:43:44;9.10;91.90
7494;DHT22;3788;49.902;8.590;2023-12-28T02:46:10;9.20;92.40
7494;DHT22;3788;49.902;8.590;2023-12-28T02:48:37;9.10;92.10
7494;DHT22;3788;49.902;8.590;2023-12-28T02:51:04;9.10;92.10
7494;DHT22;3788;49.902;8.590;2023-12-28T02:53:31;9.10;92.20
7494;DHT22;3788;49.902;8.590;2023-12-28T02:55:57;9.10;92.30
7494;DHT22;3788;49.902;8.590;2023-12-28T02:58:25;9.10;92.50
7494;DHT22;3788;49.902;8.590;2023-12-28T03:00:52;9.10;92.70
7494;DHT22;3788;49.902;8.590;2023-12-28T03:03:18;9.00;93.10
7494;DHT22;3788;49.902;8.590;2023-12-28T03:05:45;9.00;93.50
7494;DHT22;3788;49.902;8.590;2023-12-28T03:08:12;9.00;93.70
7494;DHT22;3788;49.902;8.590;2023-12-28T03:10:39;9.00;93.90
7494;DHT22;3788;49.902;8.590;2023-12-28T03:13:06;9.00;94.50
7494;DHT22;3788;49.902;8.590;2023-12-28T03:15:34;9.00;94.40
7494;DHT22;3788;49.902;8.590;2023-12-28T03:18:00;9.00;94.50
7494;DHT22;3788;49.902;8.590;2023-12-28T03:20:27;8.90;94.80
7494;DHT22;3788;49.902;8.590;2023-12-28T03:22:54;9.00;95.10
7494;DHT22;3788;49.902;8.590;2023-12-28T03:25:20;8.90;95.40
7494;DHT22;3788;49.902;8.590;2023-12-28T03:27:47;8.90;95.40
7494;DHT22;3788;49.902;8.590;2023-12-28T03:30:14;8.90;95.50
7494;DHT22;3788;49.902;8.590;2023-12-28T03:32:42;8.90;95.60
7494;DHT22;3788;49.902;8.590;2023-12-28T03:35:08;8.90;96.10
7494;DHT22;3788;49.902;8.590;2023-12-28T03:37:35;8.90;96.60
7494;DHT22;3788;49.902;8.590;2023-12-28T03:40:02;8.90;97.00
7494;DHT22;3788;49.902;8.590;2023-12-28T03:42:29;8.90;97.20
7494;DHT22;3788;49.902;8.590;2023-12-28T03:44:56;8.90;97.30
7494;DHT22;3788;49.902;8.590;2023-12-28T03:47:22;8.90;97.50
7494;DHT22;3788;49.902;8.590;2023-12-28T03:49:50;8.90;97.70
7494;DHT22;3788;49.902;8.590;2023-12-28T03:52:17;8.90;97.90
7494;DHT22;3788;49.902;8.590;2023-12-28T03:54:44;9.00;98.50
7494;DHT22;3788;49.902;8.590;2023-12-28T03:57:10;9.00;98.90
7494;DHT22;3788;49.902;8.590;2023-12-28T03:59:37;9.00;99.30
7494;DHT22;3788;49.902;8.590;2023-12-28T04:02:04;9.00;99.90
7494;DHT22;3788;49.902;8.590;2023-12-28T04:04:30;9.00;99.90
7494;DHT22;3788;49.902;8.590;2023-12-28T04:06:58;9.10;99.90
7494;DHT22;3788;49.902;8.590;2023-12-28T04:09:25;9.10;99.90
7494;DHT22;3788;49.902;8.590;2023-12-28T04:11:52;9.10;99.90
7494;DHT22;3788;49.902;8.590;2023-12-28T04:14:18;9.20;99.90
7494;DHT22;3788;49.902;8.590;2023-12-28T04:16:45;9.20;99.90
7494;DHT22;3788;49.902;8.590;2023-12-28T04:19:12;9.10;99.90
7494;DHT22;3788;49.902;8.590;2023-12-28T04:21:38;9.20;99.90
7494;DHT22;3788;49.902;8.590;2023-12-28T04:24:06;9.20;99.90
7494;DHT22;3788;49.902;8.590;2023-12-28T04:26:33;9.20;99.90
7494;DHT22;3788;49.902;8.590;2023-12-28T04:29:00;9.20;99.90
7494;DHT22;3788;49.902;8.590;2023-12-28T04:31:27;9.20;99.90
7494;DHT22;3788;49.902;8.590;2023-12-28T04:33:53;9.30;99.90
7494;DHT22;3788;49.902;8.590;2023-12-28T04:36:20;9.20;99.90
7494;DHT22;3788;49.902;8.590;2023-12-28T04:38:47;9.30;99.90
7494;DHT22;3788;49.902;8.590;2023-12-28T04:41:15;9.30;99.90
7494;DHT22;3788;49.902;8.590;2023-12-28T04:43:42;9.40;99.90
7494;DHT22;3788;49.902;8.590;2023-12-28T04:46:08;9.30;99.90
7494;DHT22;3788;49.902;8.590;2023-12-28T04:48:35;9.30;99.90
7494;DHT22;3788;49.902;8.590;2023-12-28T04:51:02;9.40;99.90
7494;DHT22;3788;49.902;8.590;2023-12-28T04:53:29;9.40;99.90
7494;DHT22;3788;49.902;8.590;2023-12-28T04:55:56;9.40;99.90
7494;DHT22;3788;49.902;8.590;2023-12-28T04:58:24;9.40;99.90
7494;DHT22;3788;49.902;8.590;2023-12-28T05:00:51;9.40;99.90
7494;DHT22;3788;49.902;8.590;2023-12-28T05:03:17;9.40;99.90
7494;DHT22;3788;49.902;8.590;2023-12-28T05:05:44;9.40;99.90
7494;DHT22;3788;49.902;8.590;2023-12-28T05:08:11;9.40;99.90
7494;DHT22;3788;49.902;8.590;2023-12-28T05:10:37;9.40;99.90
7494;DHT22;3788;49.902;8.590;2023-12-28T05:13:04;9.40;99.90
7494;DHT22;3788;49.902;8.590;2023-12-28T05:15:32;9.40;99.90
7494;DHT22;3788;49.902;8.590;2023-12-28T05:17:58;9.40;99.90
7494;DHT22;3788;49.902;8.590;2023-12-28T05:20:25;9.40;99.90
7494;DHT22;3788;49.902;8.590;2023-12-28T05:22:52;9.50;99.90
7494;DHT22;3788;49.902;8.590;2023-12-28T05:25:18;9.40;99.90
7494;DHT22;3788;49.902;8.590;2023-12-28T05:27:45;9.40;99.90
7494;DHT22;3788;49.902;8.590;2023-12-28T05:30:12;9.40;99.90
7494;DHT22;3788;49.902;8.590;2023-12-28T05:32:40;9.40;99.90
7494;DHT22;3788;49.902;8.590;2023-12-28T05:35:07;9.40;99.90
7494;DHT22;3788;49.902;8.590;2023-12-28T05:37:33;9.40;99.90
7494;DHT22;3788;49.902;8.590;2023-12-28T05:40:00;9.40;99.90
7494;DHT22;3788;49.902;8.590;2023-12-28T05:42:27;9.40;99.90
7494;DHT22;3788;49.902;8.590;2023-12-28T05:44:54;9.40;99.90
7494;DHT22;3788;49.902;8.590;2023-12-28T05:47:20;9.50;99.90
7494;DHT22;3788;49.902;8.590;2023-12-28T05:49:48;9.50;99.90
7494;DHT22;3788;49.902;8.590;2023-12-28T05:52:15;9.50;99.90
7494;DHT22;3788;49.902;8.590;2023-12-28T05:54:44;9.50;99.90
7494;DHT22;3788;49.902;8.590;2023-12-28T05:57:10;9.50;99.90
7494;DHT22;3788;49.902;8.590;2023-12-28T05:59:38;9.50;99.90
7494;DHT22;3788;49.902;8.590;2023-12-28T06:02:05;9.50;99.90
7494;DHT22;3788;49.902;8.590;2023-12-28T06:04:32;9.50;99.90
7494;DHT22;3788;49.902;8.590;2023-12-28T06:07:02;9.50;99.90
7494;DHT22;3788;49.902;8.590;2023-12-28T06:09:29;9.50;99.90
7494;DHT22;3788;49.902;8.590;2023-12-28T06:11:55;9.50;99.90
7494;DHT22;3788;49.902;8.590;2023-12-28T06:14:22;9.50;99.90
7494;DHT22;3788;49.902;8.590;2023-12-28T06:16:49;9.50;99.90
7494;DHT22;3788;49.902;8.590;2023-12-28T06:19:15;9.50;99.90
7494;DHT22;3788;49.902;8.590;2023-12-28T06:21:42;9.50;99.90
7494;DHT22;3788;49.902;8.590;2023-12-28T06:24:10;9.50;99.90
7494;DHT22;3788;49.902;8.590;2023-12-28T06:26:39;9.50;99.90
7494;DHT22;3788;49.902;8.590;2023-12-28T06:29:06;9.50;99.90
7494;DHT22;3788;49.902;8.590;2023-12-28T06:31:33;9.50;99.90
7494;DHT22;3788;49.902;8.590;2023-12-28T06:34:01;9.60;99.90
7494;DHT22;3788;49.902;8.590;2023-12-28T06:36:28;9.50;99.90
7494;DHT22;3788;49.902;8.590;2023-12-28T06:38:55;9.60;99.90
7494;DHT22;3788;49.902;8.590;2023-12-28T06:41:23;9.60;99.90
7494;DHT22;3788;49.902;8.590;2023-12-28T06:43:49;9.60;99.90
7494;DHT22;3788;49.902;8.590;2023-12-28T06:46:16;9.60;99.90
7494;DHT22;3788;49.902;8.590;2023-12-28T06:48:43;9.60;99.90
7494;DHT22;3788;49.902;8.590;2023-12-28T06:51:10;9.60;99.90
7494;DHT22;3788;49.902;8.590;2023-12-28T06:53:36;9.60;99.90
7494;DHT22;3788;49.902;8.590;2023-12-28T06:56:03;9.60;99.90
7494;DHT22;3788;49.902;8.590;2023-12-28T06:58:31;9.60;99.90
7494;DHT22;3788;49.902;8.590;2023-12-28T07:00:58;9.60;99.90
7494;DHT22;3788;49.902;8.590;2023-12-28T07:03:25;9.60;99.90
7494;DHT22;3788;49.902;8.590;2023-12-28T07:05:55;9.60;99.90
7494;DHT22;3788;49.902;8.590;2023-12-28T07:08:22;9.50;99.90
7494;DHT22;3788;49.902;8.590;2023-12-28T07:10:49;9.50;99.90
7494;DHT22;3788;49.902;8.590;2023-12-28T07:13:15;9.50;99.90
7494;DHT22;3788;49.902;8.590;2023-12-28T07:15:43;9.60;99.90
7494;DHT22;3788;49.902;8.590;2023-12-28T07:18:10;9.50;99.90
7494;DHT22;3788;49.902;8.590;2023-12-28T07:20:36;9.60;99.90
7494;DHT22;3788;49.902;8.590;2023-12-28T07:23:03;9.60;99.90
7494;DHT22;3788;49.902;8.590;2023-12-28T07:25:30;9.60;99.90
7494;DHT22;3788;49.902;8.590;2023-12-28T07:27:57;9.60;99.90
7494;DHT22;3788;49.902;8.590;2023-12-28T07:30:23;9.60;99.90
7494;DHT22;3788;49.902;8.590;2023-12-28T07:32:51;9.60;99.90
7494;DHT22;3788;49.902;8.590;2023-12-28T07:35:18;9.60;99.90
7494;DHT22;3788;49.902;8.590;2023-12-28T07:37:45;9.60;99.90
7494;DHT22;3788;49.902;8.590;2023-12-28T07:40:12;9.60;99.90
7494;DHT22;3788;49.902;8.590;2023-12-28T07:42:39;9.60;99.90
7494;DHT22;3788;49.902;8.590;2023-12-28T07:45:06;9.60;99.90
7494;DHT22;3788;49.902;8.590;2023-12-28T07:47:33;9.60;99.90
7494;DHT22;3788;49.902;8.590;2023-12-28T07:50:01;9.60;99.90
7494;DHT22;3788;49.902;8.590;2023-12-28T07:52:28;9.60;99.90
7494;DHT22;3788;49.902;8.590;2023-12-28T07:54:55;9.60;99.90
7494;DHT22;3788;49.902;8.590;2023-12-28T07:57:22;9.60;99.90
7494;DHT22;3788;49.902;8.590;2023-12-28T07:59:49;9.60;99.90
7494;DHT22;3788;49.902;8.590;2023-12-28T08:02:15;9.60;99.90
7494;DHT22;3788;49.902;8.590;2023-12-28T08:04:42;9.60;99.90
7494;DHT22;3788;49.902;8.590;2023-12-28T08:07:10;9.60;99.90
7494;DHT22;3788;49.902;8.590;2023-12-28T08:09:37;9.60;99.90
7494;DHT22;3788;49.902;8.590;2023-12-28T08:12:06;9.60;99.90
7494;DHT22;3788;49.902;8.590;2023-12-28T08:14:34;9.60;99.90
7494;DHT22;3788;49.902;8.590;2023-12-28T08:17:00;9.50;99.90
7494;DHT22;3788;49.902;8.590;2023-12-28T08:19:27;9.50;99.90
7494;DHT22;3788;49.902;8.590;2023-12-28T08:21:54;9.50;99.90
7494;DHT22;3788;49.902;8.590;2023-12-28T08:24:25;9.50;99.90
7494;DHT22;3788;49.902;8.590;2023-12-28T08:26:56;9.50;99.90
7494;DHT22;3788;49.902;8.590;2023-12-28T08:29:24;9.50;99.90
7494;DHT22;3788;49.902;8.590;2023-12-28T08:31:51;9.50;99.90
7494;DHT22;3788;49.902;8.590;2023-12-28T08:34:18;9.50;99.90
7494;DHT22;3788;49.902;8.590;2023-12-28T08:36:44;9.50;99.90
7494;DHT22;3788;49.902;8.590;2023-12-28T08:39:11;9.50;99.90
7494;DHT22;3788;49.902;8.590;2023-12-28T08:41:39;9.50;99.90
7494;DHT22;3788;49.902;8.590;2023-12-28T08:44:05;9.60;99.90
7494;DHT22;3788;49.902;8.590;2023-12-28T08:46:37;9.60;99.90
7494;DHT22;3788;49.902;8.590;2023-12-28T08:49:07;9.60;99.90
7494;DHT22;3788;49.902;8.590;2023-12-28T08:51:33;9.60;99.90
7494;DHT22;3788;49.902;8.590;2023-12-28T08:54:00;9.60;99.90
7494;DHT22;3788;49.902;8.590;2023-12-28T08:56:27;9.60;99.90
7494;DHT22;3788;49.902;8.590;2023-12-28T08:58:56;9.70;99.90
7494;DHT22;3788;49.902;8.590;2023-12-28T09:01:23;9.70;99.90
7494;DHT22;3788;49.902;8.590;2023-12-28T09:03:51;9.70;99.90
7494;DHT22;3788;49.902;8.590;2023-12-28T09:06:19;9.70;99.90
7494;DHT22;3788;49.902;8.590;2023-12-28T09:08:48;9.70;99.90
7494;DHT22;3788;49.902;8.590;2023-12-28T09:11:16;9.70;99.90
7494;DHT22;3788;49.902;8.590;2023-12-28T09:13:43;9.70;99.90
7494;DHT22;3788;49.902;8.590;2023-12-28T09:16:13;9.70;99.90
7494;DHT22;3788;49.902;8.590;2023-12-28T09:18:41;9.80;99.90
7494;DHT22;3788;49.902;8.590;2023-12-28T09:21:08;9.80;99.90
7494;DHT22;3788;49.902;8.590;2023-12-28T09:23:35;9.80;99.90
7494;DHT22;3788;49.902;8.590;2023-12-28T09:26:04;9.90;99.90
7494;DHT22;3788;49.902;8.590;2023-12-28T09:28:31;9.90;99.90
7494;DHT22;3788;49.902;8.590;2023-12-28T09:30:57;9.90;99.90
7494;DHT22;3788;49.902;8.590;2023-12-28T09:33:25;10.00;99.90
7494;DHT22;3788;49.902;8.590;2023-12-28T09:35:52;10.00;99.90
7494;DHT22;3788;49.902;8.590;2023-12-28T09:38:19;10.10;99.90
7494;DHT22;3788;49.902;8.590;2023-12-28T09:40:47;10.10;99.90
7494;DHT22;3788;49.902;8.590;2023-12-28T09:43:22;10.20;99.90
7494;DHT22;3788;49.902;8.590;2023-12-28T09:45:50;10.20;99.90
7494;DHT22;3788;49.902;8.590;2023-12-28T09:48:18;10.30;99.90
7494;DHT22;3788;49.902;8.590;2023-12-28T09:50:49;10.30;99.90
7494;DHT22;3788;49.902;8.590;2023-12-28T09:53:15;10.40;99.90
7494;DHT22;3788;49.902;8.590;2023-12-28T09:55:42;10.40;99.90
7494;DHT22;3788;49.902;8.590;2023-12-28T09:58:10;10.50;99.90
7494;DHT22;3788;49.902;8.590;2023-12-28T10:00:39;10.50;99.90
7494;DHT22;3788;49.902;8.590;2023-12-28T10:03:06;10.50;99.90
7494;DHT22;3788;49.902;8.590;2023-12-28T10:05:33;10.50;99.90
7494;DHT22;3788;49.902;8.590;2023-12-28T10:08:01;10.60;99.90
7494;DHT22;3788;49.902;8.590;2023-12-28T10:10:29;10.60;99.90
7494;DHT22;3788;49.902;8.590;2023-12-28T10:12:55;10.60;99.90
7494;DHT22;3788;49.902;8.590;2023-12-28T10:15:22;10.60;99.90
7494;DHT22;3788;49.902;8.590;2023-12-28T10:17:51;10.50;99.90
7494;DHT22;3788;49.902;8.590;2023-12-28T10:20:18;10.50;99.90
7494;DHT22;3788;49.902;8.590;2023-12-28T10:22:45;10.50;99.90
7494;DHT22;3788;49.902;8.590;2023-12-28T10:25:13;10.50;99.90
7494;DHT22;3788;49.902;8.590;2023-12-28T10:27:40;10.50;99.90
7494;DHT22;3788;49.902;8.590;2023-12-28T10:30:08;10.50;99.90
7494;DHT22;3788;49.902;8.590;2023-12-28T10:32:35;10.50;99.90
7494;DHT22;3788;49.902;8.590;2023-12-28T10:35:03;10.50;99.90
7494;DHT22;3788;49.902;8.590;2023-12-28T10:37:32;10.50;99.90
7494;DHT22;3788;49.902;8.590;2023-12-28T10:39:59;10.40;99.90
7494;DHT22;3788;49.902;8.590;2023-12-28T10:42:30;10.40;99.90
7494;DHT22;3788;49.902;8.590;2023-12-28T10:45:03;10.40;99.90
7494;DHT22;3788;49.902;8.590;2023-12-28T10:47:31;10.30;99.90
7494;DHT22;3788;49.902;8.590;2023-12-28T10:50:02;10.30;99.90
7494;DHT22;3788;49.902;8.590;2023-12-28T10:52:31;10.30;99.90
7494;DHT22;3788;49.902;8.590;2023-12-28T10:55:07;10.30;99.90
7494;DHT22;3788;49.902;8.590;2023-12-28T10:57:43;10.30;99.90
7494;DHT22;3788;49.902;8.590;2023-12-28T11:00:16;10.30;99.90
7494;DHT22;3788;49.902;8.590;2023-12-28T11:02:51;10.30;99.90
7494;DHT22;3788;49.902;8.590;2023-12-28T11:05:19;10.20;99.90
7494;DHT22;3788;49.902;8.590;2023-12-28T11:07:47;10.20;99.90
7494;DHT22;3788;49.902;8.590;2023-12-28T11:10:16;10.20;99.90
7494;DHT22;3788;49.902;8.590;2023-12-28T11:12:45;10.20;99.90
7494;DHT22;3788;49.902;8.590;2023-12-28T11:15:13;10.20;99.90
7494;DHT22;3788;49.902;8.590;2023-12-28T11:17:48;10.20;99.90
7494;DHT22;3788;49.902;8.590;2023-12-28T11:20:15;10.20;99.90
7494;DHT22;3788;49.902;8.590;2023-12-28T11:22:42;10.20;99.90
7494;DHT22;3788;49.902;8.590;2023-12-28T11:25:15;10.20;99.90
7494;DHT22;3788;49.902;8.590;2023-12-28T11:27:41;10.20;99.90
7494;DHT22;3788;49.902;8.590;2023-12-28T11:30:10;10.20;99.90
7494;DHT22;3788;49.902;8.590;2023-12-28T11:32:38;10.20;99.90
7494;DHT22;3788;49.902;8.590;2023-12-28T11:35:08;10.30;99.90
7494;DHT22;3788;49.902;8.590;2023-12-28T11:37:36;10.40;99.90
7494;DHT22;3788;49.902;8.590;2023-12-28T11:40:11;10.50;99.90
7494;DHT22;3788;49.902;8.590;2023-12-28T11:42:48;10.60;99.90
7494;DHT22;3788;49.902;8.590;2023-12-28T11:45:16;10.70;99.90
7494;DHT22;3788;49.902;8.590;2023-12-28T11:47:43;10.80;99.90
7494;DHT22;3788;49.902;8.590;2023-12-28T11:50:12;10.90;99.90
7494;DHT22;3788;49.902;8.590;2023-12-28T11:52:39;10.90;99.90
7494;DHT22;3788;49.902;8.590;2023-12-28T11:55:07;10.90;99.90
7494;DHT22;3788;49.902;8.590;2023-12-28T11:57:33;10.80;99.90
7494;DHT22;3788;49.902;8.590;2023-12-28T12:00:01;10.80;99.90
7494;DHT22;3788;49.902;8.590;2023-12-28T12:02:29;10.70;99.90
7494;DHT22;3788;49.902;8.590;2023-12-28T12:04:56;10.70;99.90
7494;DHT22;3788;49.902;8.590;2023-12-28T12:07:25;10.80;99.90
7494;DHT22;3788;49.902;8.590;2023-12-28T12:09:55;11.00;99.90
7494;DHT22;3788;49.902;8.590;2023-12-28T12:12:22;11.10;99.90
7494;DHT22;3788;49.902;8.590;2023-12-28T12:14:48;11.20;99.90
7494;DHT22;3788;49.902;8.590;2023-12-28T12:17:15;11.40;99.90
7494;DHT22;3788;49.902;8.590;2023-12-28T12:19:42;11.50;99.90
7494;DHT22;3788;49.902;8.590;2023-12-28T12:22:09;11.60;99.90
7494;DHT22;3788;49.902;8.590;2023-12-28T12:24:37;11.70;99.90
7494;DHT22;3788;49.902;8.590;2023-12-28T12:27:04;11.60;99.90
7494;DHT22;3788;49.902;8.590;2023-12-28T12:29:31;11.60;99.90
7494;DHT22;3788;49.902;8.590;2023-12-28T12:31:58;11.50;99.90
7494;DHT22;3788;49.902;8.590;2023-12-28T12:34:27;11.40;99.90
7494;DHT22;3788;49.902;8.590;2023-12-28T12:36:54;11.30;99.90
7494;DHT22;3788;49.902;8.590;2023-12-28T12:39:23;11.30;99.90
7494;DHT22;3788;49.902;8.590;2023-12-28T12:41:51;11.20;99.90
7494;DHT22;3788;49.902;8.590;2023-12-28T12:44:19;11.20;99.90
7494;DHT22;3788;49.902;8.590;2023-12-28T12:46:46;11.20;99.90
7494;DHT22;3788;49.902;8.590;2023-12-28T12:49:13;11.20;99.90
7494;DHT22;3788;49.902;8.590;2023-12-28T12:51:39;11.20;99.90
7494;DHT22;3788;49.902;8.590;2023-12-28T12:54:07;11.20;99.90
7494;DHT22;3788;49.902;8.590;2023-12-28T12:56:35;11.10;99.90
7494;DHT22;3788;49.902;8.590;2023-12-28T12:59:03;11.10;99.90
7494;DHT22;3788;49.902;8.590;2023-12-28T13:01:29;11.00;99.90
7494;DHT22;3788;49.902;8.590;2023-12-28T13:03:56;11.00;99.90
7494;DHT22;3788;49.902;8.590;2023-12-28T13:06:23;11.00;99.90
7494;DHT22;3788;49.902;8.590;2023-12-28T13:08:49;10.90;99.90
7494;DHT22;3788;49.902;8.590;2023-12-28T13:11:16;10.90;99.90
7494;DHT22;3788;49.902;8.590;2023-12-28T13:13:43;11.00;99.90
7494;DHT22;3788;49.902;8.590;2023-12-28T13:16:11;11.10;99.90
7494;DHT22;3788;49.902;8.590;2023-12-28T13:18:38;11.10;99.90
7494;DHT22;3788;49.902;8.590;2023-12-28T13:21:05;11.10;99.90
7494;DHT22;3788;49.902;8.590;2023-12-28T13:23:31;11.10;99.90
7494;DHT22;3788;49.902;8.590;2023-12-28T13:25:58;11.10;99.90
7494;DHT22;3788;49.902;8.590;2023-12-28T13:28:24;11.10;99.90
7494;DHT22;3788;49.902;8.590;2023-12-28T13:30:51;11.10;99.90
7494;DHT22;3788;49.902;8.590;2023-12-28T13:33:22;11.10;99.90
7494;DHT22;3788;49.902;8.590;2023-12-28T13:35:49;11.10;99.90
7494;DHT22;3788;49.902;8.590;2023-12-28T13:38:16;11.00;99.90
7494;DHT22;3788;49.902;8.590;2023-12-28T13:40:43;10.90;99.90
7494;DHT22;3788;49.902;8.590;2023-12-28T13:43:10;10.80;99.90
7494;DHT22;3788;49.902;8.590;2023-12-28T13:45:36;10.70;99.90
7494;DHT22;3788;49.902;8.590;2023-12-28T13:48:03;10.60;99.90
7494;DHT22;3788;49.902;8.590;2023-12-28T13:50:31;10.50;99.90
7494;DHT22;3788;49.902;8.590;2023-12-28T13:52:58;10.40;99.90
7494;DHT22;3788;49.902;8.590;2023-12-28T13:55:25;10.40;99.90
7494;DHT22;3788;49.902;8.590;2023-12-28T13:57:53;10.30;99.90
7494;DHT22;3788;49.902;8.590;2023-12-28T14:00:20;10.20;99.90
7494;DHT22;3788;49.902;8.590;2023-12-28T14:02:47;10.20;99.90
7494;DHT22;3788;49.902;8.590;2023-12-28T14:05:13;10.20;99.90
7494;DHT22;3788;49.902;8.590;2023-12-28T14:07:41;10.20;99.90
7494;DHT22;3788;49.902;8.590;2023-12-28T14:10:08;10.20;99.90
7494;DHT22;3788;49.902;8.590;2023-12-28T14:12:35;10.10;99.90
7494;DHT22;3788;49.902;8.590;2023-12-28T14:15:01;10.10;99.90
7494;DHT22;3788;49.902;8.590;2023-12-28T14:17:28;10.10;99.90
7494;DHT22;3788;49.902;8.590;2023-12-28T14:19:55;10.10;99.90
7494;DHT22;3788;49.902;8.590;2023-12-28T14:22:22;10.10;99.90
7494;DHT22;3788;49.902;8.590;2023-12-28T14:24:52;10.10;99.90
7494;DHT22;3788;49.902;8.590;2023-12-28T14:27:19;10.20;99.90
7494;DHT22;3788;49.902;8.590;2023-12-28T14:29:47;10.20;99.90
7494;DHT22;3788;49.902;8.590;2023-12-28T14:32:16;10.30;99.90
7494;DHT22;3788;49.902;8.590;2023-12-28T14:34:43;10.30;99.90
7494;DHT22;3788;49.902;8.590;2023-12-28T14:37:10;10.40;99.90
7494;DHT22;3788;49.902;8.590;2023-12-28T14:39:37;10.40;99.90
7494;DHT22;3788;49.902;8.590;2023-12-28T14:42:05;10.40;99.90
7494;DHT22;3788;49.902;8.590;2023-12-28T14:44:32;10.40;99.90
7494;DHT22;3788;49.902;8.590;2023-12-28T14:46:59;10.40;99.90
7494;DHT22;3788;49.902;8.590;2023-12-28T14:49:26;10.30;99.90
7494;DHT22;3788;49.902;8.590;2023-12-28T14:51:52;10.30;99.90
7494;DHT22;3788;49.902;8.590;2023-12-28T14:54:19;10.20;99.90
7494;DHT22;3788;49.902;8.590;2023-12-28T14:56:46;10.20;99.90
7494;DHT22;3788;49.902;8.590;2023-12-28T14:59:14;10.10;99.90
7494;DHT22;3788;49.902;8.590;2023-12-28T15:01:40;10.10;99.90
7494;DHT22;3788;49.902;8.590;2023-12-28T15:04:07;10.10;99.90
7494;DHT22;3788;49.902;8.590;2023-12-28T15:06:34;10.10;99.90
7494;DHT22;3788;49.902;8.590;2023-12-28T15:09:00;10.10;99.90
7494;DHT22;3788;49.902;8.590;2023-12-28T15:11:27;10.10;99.90
7494;DHT22;3788;49.902;8.590;2023-12-28T15:13:55;10.10;99.90
7494;DHT22;3788;49.902;8.590;2023-12-28T15:16:23;10.00;99.90
7494;DHT22;3788;49.902;8.590;2023-12-28T15:18:50;10.00;99.90
7494;DHT22;3788;49.902;8.590;2023-12-28T15:21:18;10.00;99.90
7494;DHT22;3788;49.902;8.590;2023-12-28T15:23:45;9.90;99.90
7494;DHT22;3788;49.902;8.590;2023-12-28T15:26:12;9.90;99.90
7494;DHT22;3788;49.902;8.590;2023-12-28T15:28:39;9.90;99.90
7494;DHT22;3788;49.902;8.590;2023-12-28T15:31:06;9.80;99.90
7494;DHT22;3788;49.902;8.590;2023-12-28T15:33:34;9.80;99.90
7494;DHT22;3788;49.902;8.590;2023-12-28T15:36:00;9.70;99.90
7494;DHT22;3788;49.902;8.590;2023-12-28T15:38:27;9.70;99.90
7494;DHT22;3788;49.902;8.590;2023-12-28T15:40:54;9.70;99.90
7494;DHT22;3788;49.902;8.590;2023-12-28T15:43:20;9.70;99.90
7494;DHT22;3788;49.902;8.590;2023-12-28T15:45:47;9.70;99.90
7494;DHT22;3788;49.902;8.590;2023-12-28T15:48:14;9.70;99.90
7494;DHT22;3788;49.902;8.590;2023-12-28T15:50:42;9.60;99.90
7494;DHT22;3788;49.902;8.590;2023-12-28T15:53:08;9.60;99.90
7494;DHT22;3788;49.902;8.590;2023-12-28T15:55:35;9.60;99.90
7494;DHT22;3788;49.902;8.590;2023-12-28T15:58:01;9.60;99.90
7494;DHT22;3788;49.902;8.590;2023-12-28T16:00:29;9.60;99.90
7494;DHT22;3788;49.902;8.590;2023-12-28T16:02:55;9.60;99.90
7494;DHT22;3788;49.902;8.590;2023-12-28T16:05:22;9.60;99.90
7494;DHT22;3788;49.902;8.590;2023-12-28T16:07:50;9.50;99.90
7494;DHT22;3788;49.902;8.590;2023-12-28T16:10:16;9.50;99.90
7494;DHT22;3788;49.902;8.590;2023-12-28T16:12:43;9.40;99.90